<?xml version="1.0" encoding="UTF-8" standalone="no" ?>
<gpx xmlns="http://www.topografix.com/GPX/1/1" xmlns:xsi="http://www.w3.org/2001/XMLSchema-instance" xsi:schemaLocation="http://www.topografix.com/GPX/1/1 http://www.topografix.com/GPX/1/1/gpx.xsd" version="1.1" creator="VisuGPX - https://www.visugpx.com">
  <metadata>
    <name>BRC Alleyras Gorges de la Loire</name>
  </metadata>
  <wpt lat="44.88862" lon="3.92263">
    <ele>772</ele>
    <name><![CDATA[Point de passage 1]]></name>
    <type><![CDATA[GENERIC]]></type>
  </wpt>
  <wpt lat="44.88886" lon="3.92217">
    <ele>768</ele>
    <name><![CDATA[Point de passage 2]]></name>
    <type><![CDATA[GENERIC]]></type>
  </wpt>
  <trk>
    <name><![CDATA[BRC Alleyras Gorges de la Loire ]]></name>
    <trkseg>
      <trkpt lat="44.88862" lon="3.92263">
        <ele>772</ele>
        <time>2025-09-19T07:48:24.000Z</time>
      </trkpt>
      <trkpt lat="44.8886" lon="3.92247">
        <ele>772</ele>
        <time>2025-09-19T07:48:25.000Z</time>
      </trkpt>
      <trkpt lat="44.88883" lon="3.92238">
        <ele>773</ele>
        <time>2025-09-19T07:48:50.000Z</time>
      </trkpt>
      <trkpt lat="44.88904" lon="3.92226">
        <ele>766</ele>
        <time>2025-09-19T07:52:50.000Z</time>
      </trkpt>
      <trkpt lat="44.88924" lon="3.92212">
        <ele>760</ele>
        <time>2025-09-19T07:53:14.000Z</time>
      </trkpt>
      <trkpt lat="44.88947" lon="3.92205">
        <ele>765</ele>
        <time>2025-09-19T07:53:36.000Z</time>
      </trkpt>
      <trkpt lat="44.88968" lon="3.92189">
        <ele>767</ele>
        <time>2025-09-19T07:54:01.000Z</time>
      </trkpt>
      <trkpt lat="44.88975" lon="3.92158">
        <ele>772</ele>
        <time>2025-09-19T07:54:25.000Z</time>
      </trkpt>
      <trkpt lat="44.8898" lon="3.92127">
        <ele>774</ele>
        <time>2025-09-19T07:54:48.000Z</time>
      </trkpt>
      <trkpt lat="44.88985" lon="3.92095">
        <ele>778</ele>
        <time>2025-09-19T07:55:10.000Z</time>
      </trkpt>
      <trkpt lat="44.88987" lon="3.92063">
        <ele>779</ele>
        <time>2025-09-19T07:55:33.000Z</time>
      </trkpt>
      <trkpt lat="44.88992" lon="3.92031">
        <ele>783</ele>
        <time>2025-09-19T07:55:55.000Z</time>
      </trkpt>
      <trkpt lat="44.88998" lon="3.92001">
        <ele>786</ele>
        <time>2025-09-19T07:56:19.000Z</time>
      </trkpt>
      <trkpt lat="44.89005" lon="3.91968">
        <ele>787</ele>
        <time>2025-09-19T07:56:43.000Z</time>
      </trkpt>
      <trkpt lat="44.89012" lon="3.91937">
        <ele>790</ele>
        <time>2025-09-19T07:57:07.000Z</time>
      </trkpt>
      <trkpt lat="44.89017" lon="3.91906">
        <ele>789</ele>
        <time>2025-09-19T07:57:32.000Z</time>
      </trkpt>
      <trkpt lat="44.89022" lon="3.91874">
        <ele>789</ele>
        <time>2025-09-19T07:57:56.000Z</time>
      </trkpt>
      <trkpt lat="44.89028" lon="3.91844">
        <ele>794</ele>
        <time>2025-09-19T07:58:19.000Z</time>
      </trkpt>
      <trkpt lat="44.89031" lon="3.9181">
        <ele>797</ele>
        <time>2025-09-19T07:58:40.000Z</time>
      </trkpt>
      <trkpt lat="44.89033" lon="3.91778">
        <ele>795</ele>
        <time>2025-09-19T07:59:02.000Z</time>
      </trkpt>
      <trkpt lat="44.89037" lon="3.91745">
        <ele>794</ele>
        <time>2025-09-19T07:59:25.000Z</time>
      </trkpt>
      <trkpt lat="44.89043" lon="3.91713">
        <ele>792</ele>
        <time>2025-09-19T07:59:46.000Z</time>
      </trkpt>
      <trkpt lat="44.89046" lon="3.91681">
        <ele>793</ele>
        <time>2025-09-19T08:00:06.000Z</time>
      </trkpt>
      <trkpt lat="44.89051" lon="3.91648">
        <ele>793</ele>
        <time>2025-09-19T08:00:28.000Z</time>
      </trkpt>
      <trkpt lat="44.89056" lon="3.91617">
        <ele>798</ele>
        <time>2025-09-19T08:01:07.000Z</time>
      </trkpt>
      <trkpt lat="44.89061" lon="3.91585">
        <ele>801</ele>
        <time>2025-09-19T08:01:26.000Z</time>
      </trkpt>
      <trkpt lat="44.89068" lon="3.91554">
        <ele>805</ele>
        <time>2025-09-19T08:01:49.000Z</time>
      </trkpt>
      <trkpt lat="44.89072" lon="3.91523">
        <ele>808</ele>
        <time>2025-09-19T08:02:11.000Z</time>
      </trkpt>
      <trkpt lat="44.89077" lon="3.9149">
        <ele>808</ele>
        <time>2025-09-19T08:02:34.000Z</time>
      </trkpt>
      <trkpt lat="44.89083" lon="3.9146">
        <ele>809</ele>
        <time>2025-09-19T08:02:56.000Z</time>
      </trkpt>
      <trkpt lat="44.89091" lon="3.91429">
        <ele>810</ele>
        <time>2025-09-19T08:03:19.000Z</time>
      </trkpt>
      <trkpt lat="44.891" lon="3.914">
        <ele>809</ele>
        <time>2025-09-19T08:03:43.000Z</time>
      </trkpt>
      <trkpt lat="44.89108" lon="3.9137">
        <ele>813</ele>
        <time>2025-09-19T08:04:06.000Z</time>
      </trkpt>
      <trkpt lat="44.89119" lon="3.91341">
        <ele>815</ele>
        <time>2025-09-19T08:04:31.000Z</time>
      </trkpt>
      <trkpt lat="44.8913" lon="3.91313">
        <ele>818</ele>
        <time>2025-09-19T08:04:54.000Z</time>
      </trkpt>
      <trkpt lat="44.89142" lon="3.91285">
        <ele>819</ele>
        <time>2025-09-19T08:05:18.000Z</time>
      </trkpt>
      <trkpt lat="44.89152" lon="3.91256">
        <ele>827</ele>
        <time>2025-09-19T08:05:43.000Z</time>
      </trkpt>
      <trkpt lat="44.89166" lon="3.9123">
        <ele>826</ele>
        <time>2025-09-19T08:06:09.000Z</time>
      </trkpt>
      <trkpt lat="44.89176" lon="3.91201">
        <ele>828</ele>
        <time>2025-09-19T08:06:34.000Z</time>
      </trkpt>
      <trkpt lat="44.89188" lon="3.91173">
        <ele>831</ele>
        <time>2025-09-19T08:06:59.000Z</time>
      </trkpt>
      <trkpt lat="44.892" lon="3.91147">
        <ele>837</ele>
        <time>2025-09-19T08:07:24.000Z</time>
      </trkpt>
      <trkpt lat="44.89211" lon="3.91117">
        <ele>838</ele>
        <time>2025-09-19T08:07:49.000Z</time>
      </trkpt>
      <trkpt lat="44.89218" lon="3.91087">
        <ele>842</ele>
        <time>2025-09-19T08:08:13.000Z</time>
      </trkpt>
      <trkpt lat="44.89223" lon="3.91055">
        <ele>841</ele>
        <time>2025-09-19T08:08:37.000Z</time>
      </trkpt>
      <trkpt lat="44.89224" lon="3.91023">
        <ele>845</ele>
        <time>2025-09-19T08:09:02.000Z</time>
      </trkpt>
      <trkpt lat="44.89231" lon="3.91054">
        <ele>847</ele>
        <time>2025-09-19T08:13:45.000Z</time>
      </trkpt>
      <trkpt lat="44.89233" lon="3.91085">
        <ele>849</ele>
        <time>2025-09-19T08:14:12.000Z</time>
      </trkpt>
      <trkpt lat="44.89231" lon="3.91118">
        <ele>849</ele>
        <time>2025-09-19T08:14:37.000Z</time>
      </trkpt>
      <trkpt lat="44.89229" lon="3.91151">
        <ele>848</ele>
        <time>2025-09-19T08:15:04.000Z</time>
      </trkpt>
      <trkpt lat="44.89222" lon="3.91182">
        <ele>848</ele>
        <time>2025-09-19T08:15:31.000Z</time>
      </trkpt>
      <trkpt lat="44.89215" lon="3.91213">
        <ele>848</ele>
        <time>2025-09-19T08:15:58.000Z</time>
      </trkpt>
      <trkpt lat="44.89212" lon="3.91245">
        <ele>849</ele>
        <time>2025-09-19T08:16:24.000Z</time>
      </trkpt>
      <trkpt lat="44.89215" lon="3.91277">
        <ele>858</ele>
        <time>2025-09-19T08:16:55.000Z</time>
      </trkpt>
      <trkpt lat="44.89237" lon="3.91266">
        <ele>864</ele>
        <time>2025-09-19T08:17:35.000Z</time>
      </trkpt>
      <trkpt lat="44.8925" lon="3.9124">
        <ele>866</ele>
        <time>2025-09-19T08:18:05.000Z</time>
      </trkpt>
      <trkpt lat="44.89261" lon="3.91212">
        <ele>872</ele>
        <time>2025-09-19T08:18:33.000Z</time>
      </trkpt>
      <trkpt lat="44.89278" lon="3.9119">
        <ele>875</ele>
        <time>2025-09-19T08:19:04.000Z</time>
      </trkpt>
      <trkpt lat="44.89293" lon="3.91166">
        <ele>884</ele>
        <time>2025-09-19T08:19:30.000Z</time>
      </trkpt>
      <trkpt lat="44.89304" lon="3.91138">
        <ele>884</ele>
        <time>2025-09-19T08:19:57.000Z</time>
      </trkpt>
      <trkpt lat="44.89316" lon="3.91111">
        <ele>889</ele>
        <time>2025-09-19T08:27:41.000Z</time>
      </trkpt>
      <trkpt lat="44.89338" lon="3.91119">
        <ele>896</ele>
        <time>2025-09-19T08:28:44.000Z</time>
      </trkpt>
      <trkpt lat="44.89345" lon="3.9115">
        <ele>903</ele>
        <time>2025-09-19T08:29:19.000Z</time>
      </trkpt>
      <trkpt lat="44.89353" lon="3.9118">
        <ele>907</ele>
        <time>2025-09-19T08:29:46.000Z</time>
      </trkpt>
      <trkpt lat="44.8936" lon="3.91212">
        <ele>905</ele>
        <time>2025-09-19T08:30:15.000Z</time>
      </trkpt>
      <trkpt lat="44.89377" lon="3.91191">
        <ele>910</ele>
        <time>2025-09-19T08:31:14.000Z</time>
      </trkpt>
      <trkpt lat="44.89381" lon="3.9116">
        <ele>917</ele>
        <time>2025-09-19T08:31:45.000Z</time>
      </trkpt>
      <trkpt lat="44.89383" lon="3.91127">
        <ele>921</ele>
        <time>2025-09-19T08:32:22.000Z</time>
      </trkpt>
      <trkpt lat="44.89383" lon="3.91094">
        <ele>922</ele>
        <time>2025-09-19T08:33:00.000Z</time>
      </trkpt>
      <trkpt lat="44.89384" lon="3.91062">
        <ele>927</ele>
        <time>2025-09-19T08:33:38.000Z</time>
      </trkpt>
      <trkpt lat="44.89385" lon="3.9103">
        <ele>930</ele>
        <time>2025-09-19T08:34:14.000Z</time>
      </trkpt>
      <trkpt lat="44.89385" lon="3.90998">
        <ele>932</ele>
        <time>2025-09-19T08:34:52.000Z</time>
      </trkpt>
      <trkpt lat="44.89384" lon="3.90965">
        <ele>941</ele>
        <time>2025-09-19T08:35:45.000Z</time>
      </trkpt>
      <trkpt lat="44.89383" lon="3.90932">
        <ele>938</ele>
        <time>2025-09-19T08:37:15.000Z</time>
      </trkpt>
      <trkpt lat="44.89383" lon="3.90899">
        <ele>942</ele>
        <time>2025-09-19T08:47:15.000Z</time>
      </trkpt>
      <trkpt lat="44.89398" lon="3.90874">
        <ele>945</ele>
        <time>2025-09-19T08:48:36.000Z</time>
      </trkpt>
      <trkpt lat="44.89408" lon="3.90846">
        <ele>950</ele>
        <time>2025-09-19T08:49:17.000Z</time>
      </trkpt>
      <trkpt lat="44.8942" lon="3.90818">
        <ele>954</ele>
        <time>2025-09-19T08:49:48.000Z</time>
      </trkpt>
      <trkpt lat="44.89434" lon="3.90793">
        <ele>954</ele>
        <time>2025-09-19T08:50:16.000Z</time>
      </trkpt>
      <trkpt lat="44.8945" lon="3.90769">
        <ele>956</ele>
        <time>2025-09-19T08:50:37.000Z</time>
      </trkpt>
      <trkpt lat="44.89466" lon="3.90746">
        <ele>957</ele>
        <time>2025-09-19T08:51:00.000Z</time>
      </trkpt>
      <trkpt lat="44.89483" lon="3.90725">
        <ele>959</ele>
        <time>2025-09-19T08:51:23.000Z</time>
      </trkpt>
      <trkpt lat="44.895" lon="3.90703">
        <ele>958</ele>
        <time>2025-09-19T08:51:49.000Z</time>
      </trkpt>
      <trkpt lat="44.89517" lon="3.9068">
        <ele>959</ele>
        <time>2025-09-19T08:52:14.000Z</time>
      </trkpt>
      <trkpt lat="44.89536" lon="3.9066">
        <ele>960</ele>
        <time>2025-09-19T08:52:40.000Z</time>
      </trkpt>
      <trkpt lat="44.89554" lon="3.90639">
        <ele>961</ele>
        <time>2025-09-19T08:53:04.000Z</time>
      </trkpt>
      <trkpt lat="44.89571" lon="3.90618">
        <ele>960</ele>
        <time>2025-09-19T08:53:28.000Z</time>
      </trkpt>
      <trkpt lat="44.89589" lon="3.90598">
        <ele>960</ele>
        <time>2025-09-19T08:53:52.000Z</time>
      </trkpt>
      <trkpt lat="44.89607" lon="3.90579">
        <ele>962</ele>
        <time>2025-09-19T08:54:13.000Z</time>
      </trkpt>
      <trkpt lat="44.89625" lon="3.90557">
        <ele>958</ele>
        <time>2025-09-19T08:54:37.000Z</time>
      </trkpt>
      <trkpt lat="44.89644" lon="3.9054">
        <ele>960</ele>
        <time>2025-09-19T08:54:57.000Z</time>
      </trkpt>
      <trkpt lat="44.89663" lon="3.9052">
        <ele>960</ele>
        <time>2025-09-19T08:55:21.000Z</time>
      </trkpt>
      <trkpt lat="44.89681" lon="3.90501">
        <ele>959</ele>
        <time>2025-09-19T08:55:45.000Z</time>
      </trkpt>
      <trkpt lat="44.89699" lon="3.90481">
        <ele>963</ele>
        <time>2025-09-19T08:56:07.000Z</time>
      </trkpt>
      <trkpt lat="44.89716" lon="3.9046">
        <ele>962</ele>
        <time>2025-09-19T08:56:30.000Z</time>
      </trkpt>
      <trkpt lat="44.89736" lon="3.90445">
        <ele>963</ele>
        <time>2025-09-19T08:56:56.000Z</time>
      </trkpt>
      <trkpt lat="44.89758" lon="3.90432">
        <ele>962</ele>
        <time>2025-09-19T08:57:17.000Z</time>
      </trkpt>
      <trkpt lat="44.89779" lon="3.9042">
        <ele>963</ele>
        <time>2025-09-19T08:57:37.000Z</time>
      </trkpt>
      <trkpt lat="44.89802" lon="3.90408">
        <ele>964</ele>
        <time>2025-09-19T08:57:58.000Z</time>
      </trkpt>
      <trkpt lat="44.89824" lon="3.90397">
        <ele>963</ele>
        <time>2025-09-19T08:58:20.000Z</time>
      </trkpt>
      <trkpt lat="44.89844" lon="3.90382">
        <ele>965</ele>
        <time>2025-09-19T08:58:41.000Z</time>
      </trkpt>
      <trkpt lat="44.89863" lon="3.90366">
        <ele>965</ele>
        <time>2025-09-19T08:59:00.000Z</time>
      </trkpt>
      <trkpt lat="44.89877" lon="3.90337">
        <ele>964</ele>
        <time>2025-09-19T08:59:24.000Z</time>
      </trkpt>
      <trkpt lat="44.89894" lon="3.90317">
        <ele>963</ele>
        <time>2025-09-19T08:59:50.000Z</time>
      </trkpt>
      <trkpt lat="44.8991" lon="3.90293">
        <ele>964</ele>
        <time>2025-09-19T09:00:12.000Z</time>
      </trkpt>
      <trkpt lat="44.89926" lon="3.90268">
        <ele>966</ele>
        <time>2025-09-19T09:00:32.000Z</time>
      </trkpt>
      <trkpt lat="44.89938" lon="3.90241">
        <ele>965</ele>
        <time>2025-09-19T09:00:52.000Z</time>
      </trkpt>
      <trkpt lat="44.89951" lon="3.90214">
        <ele>964</ele>
        <time>2025-09-19T09:01:13.000Z</time>
      </trkpt>
      <trkpt lat="44.89965" lon="3.90189">
        <ele>963</ele>
        <time>2025-09-19T09:01:33.000Z</time>
      </trkpt>
      <trkpt lat="44.89983" lon="3.90167">
        <ele>965</ele>
        <time>2025-09-19T09:01:54.000Z</time>
      </trkpt>
      <trkpt lat="44.90003" lon="3.90151">
        <ele>962</ele>
        <time>2025-09-19T09:02:16.000Z</time>
      </trkpt>
      <trkpt lat="44.90019" lon="3.90126">
        <ele>963</ele>
        <time>2025-09-19T09:02:38.000Z</time>
      </trkpt>
      <trkpt lat="44.90017" lon="3.90094">
        <ele>961</ele>
        <time>2025-09-19T09:02:59.000Z</time>
      </trkpt>
      <trkpt lat="44.90023" lon="3.90064">
        <ele>958</ele>
        <time>2025-09-19T09:03:22.000Z</time>
      </trkpt>
      <trkpt lat="44.90045" lon="3.90071">
        <ele>961</ele>
        <time>2025-09-19T09:03:44.000Z</time>
      </trkpt>
      <trkpt lat="44.90064" lon="3.90092">
        <ele>957</ele>
        <time>2025-09-19T09:04:09.000Z</time>
      </trkpt>
      <trkpt lat="44.90084" lon="3.90107">
        <ele>959</ele>
        <time>2025-09-19T09:04:29.000Z</time>
      </trkpt>
      <trkpt lat="44.90106" lon="3.90113">
        <ele>957</ele>
        <time>2025-09-19T09:07:20.000Z</time>
      </trkpt>
      <trkpt lat="44.90129" lon="3.90115">
        <ele>957</ele>
        <time>2025-09-19T09:07:44.000Z</time>
      </trkpt>
      <trkpt lat="44.90149" lon="3.90133">
        <ele>957</ele>
        <time>2025-09-19T09:08:20.000Z</time>
      </trkpt>
      <trkpt lat="44.90171" lon="3.90136">
        <ele>955</ele>
        <time>2025-09-19T09:10:28.000Z</time>
      </trkpt>
      <trkpt lat="44.90194" lon="3.90139">
        <ele>955</ele>
        <time>2025-09-19T09:10:53.000Z</time>
      </trkpt>
      <trkpt lat="44.90218" lon="3.90144">
        <ele>954</ele>
        <time>2025-09-19T09:11:16.000Z</time>
      </trkpt>
      <trkpt lat="44.90241" lon="3.90144">
        <ele>953</ele>
        <time>2025-09-19T09:11:35.000Z</time>
      </trkpt>
      <trkpt lat="44.90264" lon="3.9014">
        <ele>954</ele>
        <time>2025-09-19T09:11:54.000Z</time>
      </trkpt>
      <trkpt lat="44.90285" lon="3.9015">
        <ele>951</ele>
        <time>2025-09-19T09:12:15.000Z</time>
      </trkpt>
      <trkpt lat="44.90302" lon="3.90173">
        <ele>953</ele>
        <time>2025-09-19T09:12:34.000Z</time>
      </trkpt>
      <trkpt lat="44.90317" lon="3.90196">
        <ele>954</ele>
        <time>2025-09-19T09:12:55.000Z</time>
      </trkpt>
      <trkpt lat="44.90335" lon="3.90219">
        <ele>956</ele>
        <time>2025-09-19T09:13:17.000Z</time>
      </trkpt>
      <trkpt lat="44.90347" lon="3.90247">
        <ele>958</ele>
        <time>2025-09-19T09:13:39.000Z</time>
      </trkpt>
      <trkpt lat="44.90358" lon="3.90276">
        <ele>957</ele>
        <time>2025-09-19T09:13:59.000Z</time>
      </trkpt>
      <trkpt lat="44.90368" lon="3.90306">
        <ele>957</ele>
        <time>2025-09-19T09:14:20.000Z</time>
      </trkpt>
      <trkpt lat="44.90377" lon="3.90335">
        <ele>955</ele>
        <time>2025-09-19T09:16:37.000Z</time>
      </trkpt>
      <trkpt lat="44.90386" lon="3.90365">
        <ele>953</ele>
        <time>2025-09-19T09:16:56.000Z</time>
      </trkpt>
      <trkpt lat="44.90397" lon="3.90393">
        <ele>953</ele>
        <time>2025-09-19T09:17:14.000Z</time>
      </trkpt>
      <trkpt lat="44.90406" lon="3.90422">
        <ele>952</ele>
        <time>2025-09-19T09:17:33.000Z</time>
      </trkpt>
      <trkpt lat="44.90414" lon="3.90452">
        <ele>951</ele>
        <time>2025-09-19T09:17:50.000Z</time>
      </trkpt>
      <trkpt lat="44.90422" lon="3.90482">
        <ele>951</ele>
        <time>2025-09-19T09:18:08.000Z</time>
      </trkpt>
      <trkpt lat="44.90428" lon="3.90512">
        <ele>951</ele>
        <time>2025-09-19T09:18:27.000Z</time>
      </trkpt>
      <trkpt lat="44.90437" lon="3.90542">
        <ele>951</ele>
        <time>2025-09-19T09:18:47.000Z</time>
      </trkpt>
      <trkpt lat="44.9045" lon="3.90568">
        <ele>948</ele>
        <time>2025-09-19T09:19:06.000Z</time>
      </trkpt>
      <trkpt lat="44.90467" lon="3.90591">
        <ele>945</ele>
        <time>2025-09-19T09:19:27.000Z</time>
      </trkpt>
      <trkpt lat="44.90485" lon="3.90612">
        <ele>944</ele>
        <time>2025-09-19T09:19:48.000Z</time>
      </trkpt>
      <trkpt lat="44.90505" lon="3.90629">
        <ele>943</ele>
        <time>2025-09-19T09:20:09.000Z</time>
      </trkpt>
      <trkpt lat="44.90521" lon="3.90652">
        <ele>943</ele>
        <time>2025-09-19T09:20:34.000Z</time>
      </trkpt>
      <trkpt lat="44.90535" lon="3.90678">
        <ele>938</ele>
        <time>2025-09-19T09:21:02.000Z</time>
      </trkpt>
      <trkpt lat="44.90551" lon="3.90701">
        <ele>934</ele>
        <time>2025-09-19T09:21:36.000Z</time>
      </trkpt>
      <trkpt lat="44.90569" lon="3.90721">
        <ele>927</ele>
        <time>2025-09-19T09:22:09.000Z</time>
      </trkpt>
      <trkpt lat="44.90584" lon="3.90745">
        <ele>923</ele>
        <time>2025-09-19T09:22:46.000Z</time>
      </trkpt>
      <trkpt lat="44.90602" lon="3.90766">
        <ele>916</ele>
        <time>2025-09-19T09:23:16.000Z</time>
      </trkpt>
      <trkpt lat="44.90618" lon="3.90791">
        <ele>909</ele>
        <time>2025-09-19T09:23:44.000Z</time>
      </trkpt>
      <trkpt lat="44.90629" lon="3.90819">
        <ele>901</ele>
        <time>2025-09-19T09:24:11.000Z</time>
      </trkpt>
      <trkpt lat="44.90637" lon="3.90849">
        <ele>899</ele>
        <time>2025-09-19T09:24:32.000Z</time>
      </trkpt>
      <trkpt lat="44.90645" lon="3.90879">
        <ele>893</ele>
        <time>2025-09-19T09:24:57.000Z</time>
      </trkpt>
      <trkpt lat="44.90651" lon="3.90911">
        <ele>892</ele>
        <time>2025-09-19T09:25:26.000Z</time>
      </trkpt>
      <trkpt lat="44.90669" lon="3.90932">
        <ele>894</ele>
        <time>2025-09-19T09:25:59.000Z</time>
      </trkpt>
      <trkpt lat="44.90682" lon="3.90957">
        <ele>890</ele>
        <time>2025-09-19T09:26:31.000Z</time>
      </trkpt>
      <trkpt lat="44.90686" lon="3.90989">
        <ele>889</ele>
        <time>2025-09-19T09:30:55.000Z</time>
      </trkpt>
      <trkpt lat="44.90694" lon="3.91018">
        <ele>889</ele>
        <time>2025-09-19T09:31:22.000Z</time>
      </trkpt>
      <trkpt lat="44.90704" lon="3.91048">
        <ele>889</ele>
        <time>2025-09-19T09:33:22.000Z</time>
      </trkpt>
      <trkpt lat="44.90712" lon="3.91078">
        <ele>887</ele>
        <time>2025-09-19T09:33:53.000Z</time>
      </trkpt>
      <trkpt lat="44.90719" lon="3.91113">
        <ele>886</ele>
        <time>2025-09-19T09:34:17.000Z</time>
      </trkpt>
      <trkpt lat="44.90735" lon="3.91136">
        <ele>887</ele>
        <time>2025-09-19T09:34:40.000Z</time>
      </trkpt>
      <trkpt lat="44.90751" lon="3.9116">
        <ele>888</ele>
        <time>2025-09-19T09:35:00.000Z</time>
      </trkpt>
      <trkpt lat="44.90767" lon="3.91183">
        <ele>886</ele>
        <time>2025-09-19T09:35:27.000Z</time>
      </trkpt>
      <trkpt lat="44.90788" lon="3.91196">
        <ele>883</ele>
        <time>2025-09-19T09:35:57.000Z</time>
      </trkpt>
      <trkpt lat="44.90804" lon="3.91219">
        <ele>883</ele>
        <time>2025-09-19T09:37:55.000Z</time>
      </trkpt>
      <trkpt lat="44.90825" lon="3.91232">
        <ele>879</ele>
        <time>2025-09-19T09:39:10.000Z</time>
      </trkpt>
      <trkpt lat="44.90837" lon="3.91259">
        <ele>879</ele>
        <time>2025-09-19T09:40:33.000Z</time>
      </trkpt>
      <trkpt lat="44.90856" lon="3.91278">
        <ele>879</ele>
        <time>2025-09-19T09:40:58.000Z</time>
      </trkpt>
      <trkpt lat="44.90872" lon="3.91304">
        <ele>879</ele>
        <time>2025-09-19T09:41:23.000Z</time>
      </trkpt>
      <trkpt lat="44.90887" lon="3.91328">
        <ele>877</ele>
        <time>2025-09-19T09:42:00.000Z</time>
      </trkpt>
      <trkpt lat="44.90908" lon="3.91338">
        <ele>876</ele>
        <time>2025-09-19T09:42:26.000Z</time>
      </trkpt>
      <trkpt lat="44.9093" lon="3.91348">
        <ele>871</ele>
        <time>2025-09-19T09:42:53.000Z</time>
      </trkpt>
      <trkpt lat="44.90953" lon="3.91357">
        <ele>870</ele>
        <time>2025-09-19T09:43:17.000Z</time>
      </trkpt>
      <trkpt lat="44.90969" lon="3.9138">
        <ele>869</ele>
        <time>2025-09-19T09:43:43.000Z</time>
      </trkpt>
      <trkpt lat="44.90984" lon="3.91405">
        <ele>871</ele>
        <time>2025-09-19T09:44:04.000Z</time>
      </trkpt>
      <trkpt lat="44.90981" lon="3.91437">
        <ele>870</ele>
        <time>2025-09-19T09:44:30.000Z</time>
      </trkpt>
      <trkpt lat="44.90973" lon="3.91468">
        <ele>871</ele>
        <time>2025-09-19T09:44:57.000Z</time>
      </trkpt>
      <trkpt lat="44.9097" lon="3.915">
        <ele>872</ele>
        <time>2025-09-19T09:45:20.000Z</time>
      </trkpt>
      <trkpt lat="44.90972" lon="3.91533">
        <ele>868</ele>
        <time>2025-09-19T09:45:42.000Z</time>
      </trkpt>
      <trkpt lat="44.90973" lon="3.91566">
        <ele>870</ele>
        <time>2025-09-19T09:46:06.000Z</time>
      </trkpt>
      <trkpt lat="44.90972" lon="3.91598">
        <ele>866</ele>
        <time>2025-09-19T09:49:51.000Z</time>
      </trkpt>
      <trkpt lat="44.90993" lon="3.91612">
        <ele>858</ele>
        <time>2025-09-19T09:50:38.000Z</time>
      </trkpt>
      <trkpt lat="44.91003" lon="3.91641">
        <ele>854</ele>
        <time>2025-09-19T09:51:06.000Z</time>
      </trkpt>
      <trkpt lat="44.90991" lon="3.91672">
        <ele>846</ele>
        <time>2025-09-19T09:51:35.000Z</time>
      </trkpt>
      <trkpt lat="44.90971" lon="3.9169">
        <ele>845</ele>
        <time>2025-09-19T09:52:00.000Z</time>
      </trkpt>
      <trkpt lat="44.90959" lon="3.91716">
        <ele>839</ele>
        <time>2025-09-19T09:52:34.000Z</time>
      </trkpt>
      <trkpt lat="44.90939" lon="3.91733">
        <ele>834</ele>
        <time>2025-09-19T09:53:00.000Z</time>
      </trkpt>
      <trkpt lat="44.90917" lon="3.9174">
        <ele>835</ele>
        <time>2025-09-19T09:53:28.000Z</time>
      </trkpt>
      <trkpt lat="44.90897" lon="3.91758">
        <ele>833</ele>
        <time>2025-09-19T09:53:50.000Z</time>
      </trkpt>
      <trkpt lat="44.90882" lon="3.91785">
        <ele>828</ele>
        <time>2025-09-19T09:54:16.000Z</time>
      </trkpt>
      <trkpt lat="44.90863" lon="3.918">
        <ele>828</ele>
        <time>2025-09-19T09:55:07.000Z</time>
      </trkpt>
      <trkpt lat="44.90853" lon="3.9183">
        <ele>822</ele>
        <time>2025-09-19T09:56:02.000Z</time>
      </trkpt>
      <trkpt lat="44.90842" lon="3.91858">
        <ele>816</ele>
        <time>2025-09-19T09:56:47.000Z</time>
      </trkpt>
      <trkpt lat="44.90827" lon="3.91881">
        <ele>814</ele>
        <time>2025-09-19T09:57:16.000Z</time>
      </trkpt>
      <trkpt lat="44.90816" lon="3.91912">
        <ele>813</ele>
        <time>2025-09-19T09:57:48.000Z</time>
      </trkpt>
      <trkpt lat="44.90803" lon="3.91938">
        <ele>805</ele>
        <time>2025-09-19T09:58:20.000Z</time>
      </trkpt>
      <trkpt lat="44.90795" lon="3.91969">
        <ele>800</ele>
        <time>2025-09-19T09:59:01.000Z</time>
      </trkpt>
      <trkpt lat="44.90783" lon="3.91996">
        <ele>792</ele>
        <time>2025-09-19T09:59:37.000Z</time>
      </trkpt>
      <trkpt lat="44.90772" lon="3.92025">
        <ele>792</ele>
        <time>2025-09-19T10:00:03.000Z</time>
      </trkpt>
      <trkpt lat="44.90758" lon="3.9205">
        <ele>788</ele>
        <time>2025-09-19T10:00:29.000Z</time>
      </trkpt>
      <trkpt lat="44.90741" lon="3.92071">
        <ele>783</ele>
        <time>2025-09-19T10:00:52.000Z</time>
      </trkpt>
      <trkpt lat="44.90723" lon="3.92093">
        <ele>777</ele>
        <time>2025-09-19T10:01:18.000Z</time>
      </trkpt>
      <trkpt lat="44.907" lon="3.92087">
        <ele>772</ele>
        <time>2025-09-19T10:03:31.000Z</time>
      </trkpt>
      <trkpt lat="44.9068" lon="3.92074">
        <ele>769</ele>
        <time>2025-09-19T10:04:39.000Z</time>
      </trkpt>
      <trkpt lat="44.90658" lon="3.92063">
        <ele>766</ele>
        <time>2025-09-19T10:05:19.000Z</time>
      </trkpt>
      <trkpt lat="44.90635" lon="3.92055">
        <ele>762</ele>
        <time>2025-09-19T10:06:05.000Z</time>
      </trkpt>
      <trkpt lat="44.90622" lon="3.92083">
        <ele>752</ele>
        <time>2025-09-19T10:07:53.000Z</time>
      </trkpt>
      <trkpt lat="44.90613" lon="3.92114">
        <ele>749</ele>
        <time>2025-09-19T10:08:33.000Z</time>
      </trkpt>
      <trkpt lat="44.90608" lon="3.92146">
        <ele>744</ele>
        <time>2025-09-19T10:09:10.000Z</time>
      </trkpt>
      <trkpt lat="44.90585" lon="3.92148">
        <ele>743</ele>
        <time>2025-09-19T10:11:09.000Z</time>
      </trkpt>
      <trkpt lat="44.90565" lon="3.92134">
        <ele>745</ele>
        <time>2025-09-19T10:12:37.000Z</time>
      </trkpt>
      <trkpt lat="44.90543" lon="3.92124">
        <ele>743</ele>
        <time>2025-09-19T10:12:59.000Z</time>
      </trkpt>
      <trkpt lat="44.90524" lon="3.92108">
        <ele>744</ele>
        <time>2025-09-19T10:15:16.000Z</time>
      </trkpt>
      <trkpt lat="44.90505" lon="3.92087">
        <ele>746</ele>
        <time>2025-09-19T10:15:46.000Z</time>
      </trkpt>
      <trkpt lat="44.90483" lon="3.92075">
        <ele>744</ele>
        <time>2025-09-19T10:16:11.000Z</time>
      </trkpt>
      <trkpt lat="44.90464" lon="3.92058">
        <ele>743</ele>
        <time>2025-09-19T10:16:36.000Z</time>
      </trkpt>
      <trkpt lat="44.90447" lon="3.92038">
        <ele>741</ele>
        <time>2025-09-19T10:17:04.000Z</time>
      </trkpt>
      <trkpt lat="44.90444" lon="3.92005">
        <ele>745</ele>
        <time>2025-09-19T10:17:38.000Z</time>
      </trkpt>
      <trkpt lat="44.90426" lon="3.91985">
        <ele>744</ele>
        <time>2025-09-19T10:18:06.000Z</time>
      </trkpt>
      <trkpt lat="44.90421" lon="3.91953">
        <ele>746</ele>
        <time>2025-09-19T10:18:28.000Z</time>
      </trkpt>
      <trkpt lat="44.90411" lon="3.91924">
        <ele>746</ele>
        <time>2025-09-19T10:18:52.000Z</time>
      </trkpt>
      <trkpt lat="44.90402" lon="3.91894">
        <ele>746</ele>
        <time>2025-09-19T10:19:15.000Z</time>
      </trkpt>
      <trkpt lat="44.90393" lon="3.91864">
        <ele>746</ele>
        <time>2025-09-19T10:19:40.000Z</time>
      </trkpt>
      <trkpt lat="44.90387" lon="3.91834">
        <ele>744</ele>
        <time>2025-09-19T10:20:02.000Z</time>
      </trkpt>
      <trkpt lat="44.90383" lon="3.91801">
        <ele>746</ele>
        <time>2025-09-19T10:20:32.000Z</time>
      </trkpt>
      <trkpt lat="44.90384" lon="3.91768">
        <ele>746</ele>
        <time>2025-09-19T10:20:53.000Z</time>
      </trkpt>
      <trkpt lat="44.9038" lon="3.91736">
        <ele>747</ele>
        <time>2025-09-19T10:21:18.000Z</time>
      </trkpt>
      <trkpt lat="44.90379" lon="3.91703">
        <ele>745</ele>
        <time>2025-09-19T10:21:40.000Z</time>
      </trkpt>
      <trkpt lat="44.90376" lon="3.91672">
        <ele>745</ele>
        <time>2025-09-19T10:22:07.000Z</time>
      </trkpt>
      <trkpt lat="44.90371" lon="3.9164">
        <ele>746</ele>
        <time>2025-09-19T10:22:35.000Z</time>
      </trkpt>
      <trkpt lat="44.90366" lon="3.91607">
        <ele>746</ele>
        <time>2025-09-19T10:22:58.000Z</time>
      </trkpt>
      <trkpt lat="44.90373" lon="3.91576">
        <ele>746</ele>
        <time>2025-09-19T10:23:23.000Z</time>
      </trkpt>
      <trkpt lat="44.90378" lon="3.91544">
        <ele>747</ele>
        <time>2025-09-19T10:23:46.000Z</time>
      </trkpt>
      <trkpt lat="44.90379" lon="3.91511">
        <ele>745</ele>
        <time>2025-09-19T10:24:08.000Z</time>
      </trkpt>
      <trkpt lat="44.90381" lon="3.91479">
        <ele>746</ele>
        <time>2025-09-19T10:24:31.000Z</time>
      </trkpt>
      <trkpt lat="44.90387" lon="3.91446">
        <ele>750</ele>
        <time>2025-09-19T10:25:00.000Z</time>
      </trkpt>
      <trkpt lat="44.90386" lon="3.91412">
        <ele>747</ele>
        <time>2025-09-19T10:25:24.000Z</time>
      </trkpt>
      <trkpt lat="44.90392" lon="3.9138">
        <ele>750</ele>
        <time>2025-09-19T10:25:48.000Z</time>
      </trkpt>
      <trkpt lat="44.90395" lon="3.91347">
        <ele>747</ele>
        <time>2025-09-19T10:26:07.000Z</time>
      </trkpt>
      <trkpt lat="44.90401" lon="3.91315">
        <ele>749</ele>
        <time>2025-09-19T10:26:27.000Z</time>
      </trkpt>
      <trkpt lat="44.90412" lon="3.91285">
        <ele>751</ele>
        <time>2025-09-19T10:26:51.000Z</time>
      </trkpt>
      <trkpt lat="44.90417" lon="3.91254">
        <ele>753</ele>
        <time>2025-09-19T10:27:48.000Z</time>
      </trkpt>
      <trkpt lat="44.90418" lon="3.91222">
        <ele>752</ele>
        <time>2025-09-19T10:29:22.000Z</time>
      </trkpt>
      <trkpt lat="44.90427" lon="3.91192">
        <ele>754</ele>
        <time>2025-09-19T10:30:48.000Z</time>
      </trkpt>
      <trkpt lat="44.90433" lon="3.9116">
        <ele>755</ele>
        <time>2025-09-19T10:31:25.000Z</time>
      </trkpt>
      <trkpt lat="44.90433" lon="3.91128">
        <ele>753</ele>
        <time>2025-09-19T10:31:46.000Z</time>
      </trkpt>
      <trkpt lat="44.90433" lon="3.91095">
        <ele>755</ele>
        <time>2025-09-19T10:32:26.000Z</time>
      </trkpt>
      <trkpt lat="44.90414" lon="3.91078">
        <ele>751</ele>
        <time>2025-09-19T10:32:43.000Z</time>
      </trkpt>
      <trkpt lat="44.90397" lon="3.91056">
        <ele>754</ele>
        <time>2025-09-19T10:33:04.000Z</time>
      </trkpt>
      <trkpt lat="44.90375" lon="3.91044">
        <ele>755</ele>
        <time>2025-09-19T10:33:34.000Z</time>
      </trkpt>
      <trkpt lat="44.9036" lon="3.91021">
        <ele>755</ele>
        <time>2025-09-19T10:33:54.000Z</time>
      </trkpt>
      <trkpt lat="44.9034" lon="3.91037">
        <ele>754</ele>
        <time>2025-09-19T10:34:41.000Z</time>
      </trkpt>
      <trkpt lat="44.90317" lon="3.91045">
        <ele>751</ele>
        <time>2025-09-19T10:35:04.000Z</time>
      </trkpt>
      <trkpt lat="44.90295" lon="3.91033">
        <ele>754</ele>
        <time>2025-09-19T10:35:32.000Z</time>
      </trkpt>
      <trkpt lat="44.90272" lon="3.91035">
        <ele>750</ele>
        <time>2025-09-19T10:35:54.000Z</time>
      </trkpt>
      <trkpt lat="44.9025" lon="3.91045">
        <ele>753</ele>
        <time>2025-09-19T10:36:20.000Z</time>
      </trkpt>
      <trkpt lat="44.90228" lon="3.91049">
        <ele>752</ele>
        <time>2025-09-19T10:36:39.000Z</time>
      </trkpt>
      <trkpt lat="44.90205" lon="3.91055">
        <ele>756</ele>
        <time>2025-09-19T10:37:02.000Z</time>
      </trkpt>
      <trkpt lat="44.90184" lon="3.9107">
        <ele>752</ele>
        <time>2025-09-19T10:37:37.000Z</time>
      </trkpt>
      <trkpt lat="44.90162" lon="3.91081">
        <ele>752</ele>
        <time>2025-09-19T10:38:09.000Z</time>
      </trkpt>
      <trkpt lat="44.90139" lon="3.91093">
        <ele>752</ele>
        <time>2025-09-19T10:38:28.000Z</time>
      </trkpt>
      <trkpt lat="44.90118" lon="3.91104">
        <ele>754</ele>
        <time>2025-09-19T10:38:56.000Z</time>
      </trkpt>
      <trkpt lat="44.90101" lon="3.91126">
        <ele>749</ele>
        <time>2025-09-19T10:43:42.000Z</time>
      </trkpt>
      <trkpt lat="44.90085" lon="3.91154">
        <ele>756</ele>
        <time>2025-09-19T10:45:36.000Z</time>
      </trkpt>
      <trkpt lat="44.90069" lon="3.91179">
        <ele>759</ele>
        <time>2025-09-19T10:46:09.000Z</time>
      </trkpt>
      <trkpt lat="44.90056" lon="3.91208">
        <ele>759</ele>
        <time>2025-09-19T10:46:48.000Z</time>
      </trkpt>
      <trkpt lat="44.90041" lon="3.91232">
        <ele>761</ele>
        <time>2025-09-19T10:47:07.000Z</time>
      </trkpt>
      <trkpt lat="44.90032" lon="3.91262">
        <ele>760</ele>
        <time>2025-09-19T10:47:57.000Z</time>
      </trkpt>
      <trkpt lat="44.90031" lon="3.91294">
        <ele>751</ele>
        <time>2025-09-19T10:48:22.000Z</time>
      </trkpt>
      <trkpt lat="44.90024" lon="3.91326">
        <ele>759</ele>
        <time>2025-09-19T10:48:59.000Z</time>
      </trkpt>
      <trkpt lat="44.90037" lon="3.91351">
        <ele>753</ele>
        <time>2025-09-19T10:49:47.000Z</time>
      </trkpt>
      <trkpt lat="44.90046" lon="3.9138">
        <ele>751</ele>
        <time>2025-09-19T10:50:40.000Z</time>
      </trkpt>
      <trkpt lat="44.90056" lon="3.91412">
        <ele>751</ele>
        <time>2025-09-19T11:39:34.000Z</time>
      </trkpt>
      <trkpt lat="44.90051" lon="3.91444">
        <ele>753</ele>
        <time>2025-09-19T11:40:28.000Z</time>
      </trkpt>
      <trkpt lat="44.90038" lon="3.91473">
        <ele>758</ele>
        <time>2025-09-19T11:40:48.000Z</time>
      </trkpt>
      <trkpt lat="44.90028" lon="3.91504">
        <ele>757</ele>
        <time>2025-09-19T11:41:11.000Z</time>
      </trkpt>
      <trkpt lat="44.90016" lon="3.91531">
        <ele>759</ele>
        <time>2025-09-19T11:41:34.000Z</time>
      </trkpt>
      <trkpt lat="44.90007" lon="3.91561">
        <ele>757</ele>
        <time>2025-09-19T11:42:02.000Z</time>
      </trkpt>
      <trkpt lat="44.89988" lon="3.9158">
        <ele>760</ele>
        <time>2025-09-19T11:42:24.000Z</time>
      </trkpt>
      <trkpt lat="44.89965" lon="3.9159">
        <ele>760</ele>
        <time>2025-09-19T11:43:10.000Z</time>
      </trkpt>
      <trkpt lat="44.89944" lon="3.91603">
        <ele>759</ele>
        <time>2025-09-19T11:43:36.000Z</time>
      </trkpt>
      <trkpt lat="44.89923" lon="3.91616">
        <ele>759</ele>
        <time>2025-09-19T11:44:15.000Z</time>
      </trkpt>
      <trkpt lat="44.89901" lon="3.91629">
        <ele>757</ele>
        <time>2025-09-19T11:44:41.000Z</time>
      </trkpt>
      <trkpt lat="44.89878" lon="3.91624">
        <ele>759</ele>
        <time>2025-09-19T11:45:16.000Z</time>
      </trkpt>
      <trkpt lat="44.89856" lon="3.91629">
        <ele>756</ele>
        <time>2025-09-19T11:45:37.000Z</time>
      </trkpt>
      <trkpt lat="44.89833" lon="3.91634">
        <ele>755</ele>
        <time>2025-09-19T11:50:47.000Z</time>
      </trkpt>
      <trkpt lat="44.89821" lon="3.91607">
        <ele>757</ele>
        <time>2025-09-19T11:53:17.000Z</time>
      </trkpt>
      <trkpt lat="44.89803" lon="3.91588">
        <ele>762</ele>
        <time>2025-09-19T11:56:50.000Z</time>
      </trkpt>
      <trkpt lat="44.89785" lon="3.91569">
        <ele>766</ele>
        <time>2025-09-19T11:59:11.000Z</time>
      </trkpt>
      <trkpt lat="44.89763" lon="3.91579">
        <ele>759</ele>
        <time>2025-09-19T12:00:58.000Z</time>
      </trkpt>
      <trkpt lat="44.89742" lon="3.91567">
        <ele>759</ele>
        <time>2025-09-19T12:01:47.000Z</time>
      </trkpt>
      <trkpt lat="44.89719" lon="3.91562">
        <ele>763</ele>
        <time>2025-09-19T12:02:24.000Z</time>
      </trkpt>
      <trkpt lat="44.89696" lon="3.91563">
        <ele>763</ele>
        <time>2025-09-19T12:02:51.000Z</time>
      </trkpt>
      <trkpt lat="44.89671" lon="3.91578">
        <ele>764</ele>
        <time>2025-09-19T12:03:20.000Z</time>
      </trkpt>
      <trkpt lat="44.8965" lon="3.91593">
        <ele>760</ele>
        <time>2025-09-19T12:04:00.000Z</time>
      </trkpt>
      <trkpt lat="44.89628" lon="3.916">
        <ele>760</ele>
        <time>2025-09-19T12:04:38.000Z</time>
      </trkpt>
      <trkpt lat="44.89612" lon="3.91624">
        <ele>756</ele>
        <time>2025-09-19T12:05:04.000Z</time>
      </trkpt>
      <trkpt lat="44.8959" lon="3.91633">
        <ele>756</ele>
        <time>2025-09-19T12:05:30.000Z</time>
      </trkpt>
      <trkpt lat="44.89568" lon="3.91642">
        <ele>757</ele>
        <time>2025-09-19T12:05:52.000Z</time>
      </trkpt>
      <trkpt lat="44.89546" lon="3.91649">
        <ele>757</ele>
        <time>2025-09-19T12:06:16.000Z</time>
      </trkpt>
      <trkpt lat="44.89523" lon="3.91648">
        <ele>757</ele>
        <time>2025-09-19T12:06:39.000Z</time>
      </trkpt>
      <trkpt lat="44.895" lon="3.91652">
        <ele>758</ele>
        <time>2025-09-19T12:07:02.000Z</time>
      </trkpt>
      <trkpt lat="44.89478" lon="3.91647">
        <ele>758</ele>
        <time>2025-09-19T12:07:27.000Z</time>
      </trkpt>
      <trkpt lat="44.89455" lon="3.91654">
        <ele>759</ele>
        <time>2025-09-19T12:07:47.000Z</time>
      </trkpt>
      <trkpt lat="44.89434" lon="3.91665">
        <ele>761</ele>
        <time>2025-09-19T12:08:11.000Z</time>
      </trkpt>
      <trkpt lat="44.8941" lon="3.91666">
        <ele>761</ele>
        <time>2025-09-19T12:08:32.000Z</time>
      </trkpt>
      <trkpt lat="44.89386" lon="3.91671">
        <ele>762</ele>
        <time>2025-09-19T12:08:56.000Z</time>
      </trkpt>
      <trkpt lat="44.89366" lon="3.91685">
        <ele>765</ele>
        <time>2025-09-19T12:09:17.000Z</time>
      </trkpt>
      <trkpt lat="44.89344" lon="3.91697">
        <ele>766</ele>
        <time>2025-09-19T12:09:39.000Z</time>
      </trkpt>
      <trkpt lat="44.89323" lon="3.91709">
        <ele>766</ele>
        <time>2025-09-19T12:10:02.000Z</time>
      </trkpt>
      <trkpt lat="44.89302" lon="3.91694">
        <ele>764</ele>
        <time>2025-09-19T12:10:28.000Z</time>
      </trkpt>
      <trkpt lat="44.8929" lon="3.91722">
        <ele>764</ele>
        <time>2025-09-19T12:10:50.000Z</time>
      </trkpt>
      <trkpt lat="44.89284" lon="3.91755">
        <ele>765</ele>
        <time>2025-09-19T12:11:12.000Z</time>
      </trkpt>
      <trkpt lat="44.89265" lon="3.91773">
        <ele>762</ele>
        <time>2025-09-19T12:11:33.000Z</time>
      </trkpt>
      <trkpt lat="44.89251" lon="3.91798">
        <ele>761</ele>
        <time>2025-09-19T12:11:57.000Z</time>
      </trkpt>
      <trkpt lat="44.89238" lon="3.91825">
        <ele>760</ele>
        <time>2025-09-19T12:12:17.000Z</time>
      </trkpt>
      <trkpt lat="44.8922" lon="3.91845">
        <ele>760</ele>
        <time>2025-09-19T12:12:34.000Z</time>
      </trkpt>
      <trkpt lat="44.892" lon="3.9186">
        <ele>760</ele>
        <time>2025-09-19T12:13:19.000Z</time>
      </trkpt>
      <trkpt lat="44.89194" lon="3.91893">
        <ele>759</ele>
        <time>2025-09-19T12:14:54.000Z</time>
      </trkpt>
      <trkpt lat="44.89182" lon="3.9192">
        <ele>761</ele>
        <time>2025-09-19T12:15:15.000Z</time>
      </trkpt>
      <trkpt lat="44.8917" lon="3.91946">
        <ele>761</ele>
        <time>2025-09-19T12:15:36.000Z</time>
      </trkpt>
      <trkpt lat="44.89158" lon="3.91974">
        <ele>763</ele>
        <time>2025-09-19T12:15:57.000Z</time>
      </trkpt>
      <trkpt lat="44.89147" lon="3.92001">
        <ele>762</ele>
        <time>2025-09-19T12:16:17.000Z</time>
      </trkpt>
      <trkpt lat="44.89138" lon="3.92031">
        <ele>761</ele>
        <time>2025-09-19T12:16:39.000Z</time>
      </trkpt>
      <trkpt lat="44.89127" lon="3.92059">
        <ele>761</ele>
        <time>2025-09-19T12:17:04.000Z</time>
      </trkpt>
      <trkpt lat="44.89117" lon="3.92088">
        <ele>763</ele>
        <time>2025-09-19T12:17:24.000Z</time>
      </trkpt>
      <trkpt lat="44.89104" lon="3.92113">
        <ele>761</ele>
        <time>2025-09-19T12:17:45.000Z</time>
      </trkpt>
      <trkpt lat="44.89089" lon="3.92138">
        <ele>762</ele>
        <time>2025-09-19T12:18:03.000Z</time>
      </trkpt>
      <trkpt lat="44.89074" lon="3.92161">
        <ele>762</ele>
        <time>2025-09-19T12:18:20.000Z</time>
      </trkpt>
      <trkpt lat="44.89055" lon="3.9218">
        <ele>762</ele>
        <time>2025-09-19T12:18:37.000Z</time>
      </trkpt>
      <trkpt lat="44.89034" lon="3.92196">
        <ele>761</ele>
        <time>2025-09-19T12:18:54.000Z</time>
      </trkpt>
      <trkpt lat="44.89013" lon="3.92208">
        <ele>762</ele>
        <time>2025-09-19T12:19:13.000Z</time>
      </trkpt>
      <trkpt lat="44.88989" lon="3.92215">
        <ele>765</ele>
        <time>2025-09-19T12:19:33.000Z</time>
      </trkpt>
      <trkpt lat="44.88966" lon="3.92213">
        <ele>765</ele>
        <time>2025-09-19T12:19:53.000Z</time>
      </trkpt>
      <trkpt lat="44.88943" lon="3.92212">
        <ele>765</ele>
        <time>2025-09-19T12:20:29.000Z</time>
      </trkpt>
      <trkpt lat="44.8892" lon="3.92207">
        <ele>762</ele>
        <time>2025-09-19T12:22:25.000Z</time>
      </trkpt>
      <trkpt lat="44.889" lon="3.92222">
        <ele>765</ele>
        <time>2025-09-19T12:22:45.000Z</time>
      </trkpt>
      <trkpt lat="44.88879" lon="3.92207">
        <ele>771</ele>
        <time>2025-09-19T12:28:24.000Z</time>
      </trkpt>
      <trkpt lat="44.88875" lon="3.92175">
        <ele>767</ele>
        <time>2025-09-19T12:28:56.000Z</time>
      </trkpt>
      <trkpt lat="44.88868" lon="3.92145">
        <ele>768</ele>
        <time>2025-09-19T12:29:19.000Z</time>
      </trkpt>
      <trkpt lat="44.8886" lon="3.92115">
        <ele>769</ele>
        <time>2025-09-19T12:29:47.000Z</time>
      </trkpt>
      <trkpt lat="44.88862" lon="3.92083">
        <ele>767</ele>
        <time>2025-09-19T12:30:23.000Z</time>
      </trkpt>
      <trkpt lat="44.88852" lon="3.92054">
        <ele>767</ele>
        <time>2025-09-19T12:30:51.000Z</time>
      </trkpt>
      <trkpt lat="44.88843" lon="3.92024">
        <ele>770</ele>
        <time>2025-09-19T12:31:18.000Z</time>
      </trkpt>
      <trkpt lat="44.88828" lon="3.92001">
        <ele>774</ele>
        <time>2025-09-19T12:31:39.000Z</time>
      </trkpt>
      <trkpt lat="44.88812" lon="3.91978">
        <ele>771</ele>
        <time>2025-09-19T12:32:03.000Z</time>
      </trkpt>
      <trkpt lat="44.88794" lon="3.91958">
        <ele>775</ele>
        <time>2025-09-19T12:32:27.000Z</time>
      </trkpt>
      <trkpt lat="44.88772" lon="3.91948">
        <ele>777</ele>
        <time>2025-09-19T12:33:08.000Z</time>
      </trkpt>
      <trkpt lat="44.8875" lon="3.91941">
        <ele>778</ele>
        <time>2025-09-19T12:33:32.000Z</time>
      </trkpt>
      <trkpt lat="44.88731" lon="3.91923">
        <ele>778</ele>
        <time>2025-09-19T12:34:01.000Z</time>
      </trkpt>
      <trkpt lat="44.88709" lon="3.91911">
        <ele>777</ele>
        <time>2025-09-19T12:34:32.000Z</time>
      </trkpt>
      <trkpt lat="44.88693" lon="3.91888">
        <ele>777</ele>
        <time>2025-09-19T12:35:00.000Z</time>
      </trkpt>
      <trkpt lat="44.88671" lon="3.9188">
        <ele>779</ele>
        <time>2025-09-19T12:35:26.000Z</time>
      </trkpt>
      <trkpt lat="44.88647" lon="3.91879">
        <ele>788</ele>
        <time>2025-09-19T12:37:46.000Z</time>
      </trkpt>
      <trkpt lat="44.88626" lon="3.9189">
        <ele>793</ele>
        <time>2025-09-19T12:38:18.000Z</time>
      </trkpt>
      <trkpt lat="44.88605" lon="3.91875">
        <ele>796</ele>
        <time>2025-09-19T12:38:49.000Z</time>
      </trkpt>
      <trkpt lat="44.88583" lon="3.91861">
        <ele>792</ele>
        <time>2025-09-19T12:39:24.000Z</time>
      </trkpt>
      <trkpt lat="44.88569" lon="3.91836">
        <ele>787</ele>
        <time>2025-09-19T12:40:00.000Z</time>
      </trkpt>
      <trkpt lat="44.88546" lon="3.91838">
        <ele>790</ele>
        <time>2025-09-19T12:40:27.000Z</time>
      </trkpt>
      <trkpt lat="44.88525" lon="3.91826">
        <ele>798</ele>
        <time>2025-09-19T12:41:00.000Z</time>
      </trkpt>
      <trkpt lat="44.88509" lon="3.91804">
        <ele>794</ele>
        <time>2025-09-19T12:41:26.000Z</time>
      </trkpt>
      <trkpt lat="44.88484" lon="3.91789">
        <ele>794</ele>
        <time>2025-09-19T12:42:07.000Z</time>
      </trkpt>
      <trkpt lat="44.88464" lon="3.91775">
        <ele>796</ele>
        <time>2025-09-19T12:43:00.000Z</time>
      </trkpt>
      <trkpt lat="44.88448" lon="3.9175">
        <ele>793</ele>
        <time>2025-09-19T12:43:34.000Z</time>
      </trkpt>
      <trkpt lat="44.88431" lon="3.91727">
        <ele>791</ele>
        <time>2025-09-19T12:43:58.000Z</time>
      </trkpt>
      <trkpt lat="44.88412" lon="3.9171">
        <ele>785</ele>
        <time>2025-09-19T12:44:32.000Z</time>
      </trkpt>
      <trkpt lat="44.88395" lon="3.91688">
        <ele>780</ele>
        <time>2025-09-19T12:45:53.000Z</time>
      </trkpt>
      <trkpt lat="44.88371" lon="3.91684">
        <ele>779</ele>
        <time>2025-09-19T12:46:10.000Z</time>
      </trkpt>
      <trkpt lat="44.88349" lon="3.91677">
        <ele>775</ele>
        <time>2025-09-19T12:47:07.000Z</time>
      </trkpt>
      <trkpt lat="44.88326" lon="3.91674">
        <ele>773</ele>
        <time>2025-09-19T12:48:54.000Z</time>
      </trkpt>
      <trkpt lat="44.8832" lon="3.91644">
        <ele>769</ele>
        <time>2025-09-19T12:50:12.000Z</time>
      </trkpt>
      <trkpt lat="44.88326" lon="3.91674">
        <ele>773</ele>
        <time>2025-09-19T12:59:27.000Z</time>
      </trkpt>
      <trkpt lat="44.88349" lon="3.91674">
        <ele>774</ele>
        <time>2025-09-19T13:01:54.000Z</time>
      </trkpt>
      <trkpt lat="44.88371" lon="3.91683">
        <ele>780</ele>
        <time>2025-09-19T13:02:22.000Z</time>
      </trkpt>
      <trkpt lat="44.88395" lon="3.91688">
        <ele>780</ele>
        <time>2025-09-19T13:02:47.000Z</time>
      </trkpt>
      <trkpt lat="44.88415" lon="3.91706">
        <ele>782</ele>
        <time>2025-09-19T13:03:47.000Z</time>
      </trkpt>
      <trkpt lat="44.8843" lon="3.9173">
        <ele>790</ele>
        <time>2025-09-19T13:04:33.000Z</time>
      </trkpt>
      <trkpt lat="44.88447" lon="3.91751">
        <ele>794</ele>
        <time>2025-09-19T13:04:58.000Z</time>
      </trkpt>
      <trkpt lat="44.88463" lon="3.91774">
        <ele>795</ele>
        <time>2025-09-19T13:05:35.000Z</time>
      </trkpt>
      <trkpt lat="44.88485" lon="3.91783">
        <ele>793</ele>
        <time>2025-09-19T13:06:23.000Z</time>
      </trkpt>
      <trkpt lat="44.88504" lon="3.91801">
        <ele>797</ele>
        <time>2025-09-19T13:06:52.000Z</time>
      </trkpt>
      <trkpt lat="44.88522" lon="3.91821">
        <ele>794</ele>
        <time>2025-09-19T13:07:19.000Z</time>
      </trkpt>
      <trkpt lat="44.88545" lon="3.91828">
        <ele>791</ele>
        <time>2025-09-19T13:07:58.000Z</time>
      </trkpt>
      <trkpt lat="44.88568" lon="3.91827">
        <ele>794</ele>
        <time>2025-09-19T13:08:56.000Z</time>
      </trkpt>
      <trkpt lat="44.88579" lon="3.91856">
        <ele>791</ele>
        <time>2025-09-19T13:10:07.000Z</time>
      </trkpt>
      <trkpt lat="44.88599" lon="3.91873">
        <ele>791</ele>
        <time>2025-09-19T13:10:40.000Z</time>
      </trkpt>
      <trkpt lat="44.8862" lon="3.91887">
        <ele>793</ele>
        <time>2025-09-19T13:11:02.000Z</time>
      </trkpt>
      <trkpt lat="44.88643" lon="3.91887">
        <ele>787</ele>
        <time>2025-09-19T13:11:43.000Z</time>
      </trkpt>
      <trkpt lat="44.88665" lon="3.9188">
        <ele>781</ele>
        <time>2025-09-19T13:12:30.000Z</time>
      </trkpt>
      <trkpt lat="44.88688" lon="3.91886">
        <ele>777</ele>
        <time>2025-09-19T13:12:52.000Z</time>
      </trkpt>
      <trkpt lat="44.88706" lon="3.91908">
        <ele>777</ele>
        <time>2025-09-19T13:13:18.000Z</time>
      </trkpt>
      <trkpt lat="44.88726" lon="3.91921">
        <ele>774</ele>
        <time>2025-09-19T13:13:43.000Z</time>
      </trkpt>
      <trkpt lat="44.88747" lon="3.91935">
        <ele>777</ele>
        <time>2025-09-19T13:14:08.000Z</time>
      </trkpt>
      <trkpt lat="44.88769" lon="3.91946">
        <ele>775</ele>
        <time>2025-09-19T13:14:35.000Z</time>
      </trkpt>
      <trkpt lat="44.88791" lon="3.91953">
        <ele>772</ele>
        <time>2025-09-19T13:15:02.000Z</time>
      </trkpt>
      <trkpt lat="44.88809" lon="3.91973">
        <ele>773</ele>
        <time>2025-09-19T13:15:23.000Z</time>
      </trkpt>
      <trkpt lat="44.88831" lon="3.91982">
        <ele>769</ele>
        <time>2025-09-19T13:16:09.000Z</time>
      </trkpt>
      <trkpt lat="44.88847" lon="3.92007">
        <ele>769</ele>
        <time>2025-09-19T13:16:35.000Z</time>
      </trkpt>
      <trkpt lat="44.88862" lon="3.92031">
        <ele>766</ele>
        <time>2025-09-19T13:17:12.000Z</time>
      </trkpt>
      <trkpt lat="44.8886" lon="3.92064">
        <ele>765</ele>
        <time>2025-09-19T13:17:40.000Z</time>
      </trkpt>
      <trkpt lat="44.88862" lon="3.92095">
        <ele>769</ele>
        <time>2025-09-19T13:18:08.000Z</time>
      </trkpt>
      <trkpt lat="44.88862" lon="3.92128">
        <ele>770</ele>
        <time>2025-09-19T13:18:30.000Z</time>
      </trkpt>
      <trkpt lat="44.8887" lon="3.92158">
        <ele>767</ele>
        <time>2025-09-19T13:18:48.000Z</time>
      </trkpt>
      <trkpt lat="44.88876" lon="3.92189">
        <ele>768</ele>
        <time>2025-09-19T13:19:07.000Z</time>
      </trkpt>
      <trkpt lat="44.88886" lon="3.92217">
        <ele>768</ele>
        <time>2025-09-19T13:19:25.000Z</time>
      </trkpt>
    </trkseg>
  </trk>
</gpx>